Monte Tamaro — DFKP2 — position and weather

sailwx.info

Track history (hours):
 
Tides and Currents Weather Stations Pressure Air Temp Water Temp Dewpoint Dewpoint Depression Visibility Wind Speed Wind Dir Waves Ship Positions

Monte Tamaro

Last reported at 2014-Dec-19 08:25 UTC. Time now 2014-Dec-21 23:16 UTC.
Position N 26°13' W 079°16'.

Length 272.1 m; beam 40.1 m; draft 13.2 m.

Type: Ship (hazmat cat B). MMSI: 218132000.

Date/timePositionNaut miles runAvg speedWind from/ knotsBaromVisibWave heightAir tempDewpointWater temp
2014-Dec-19 08:25N 26°13' W 079°16'1618.4
2014-Dec-19 07:33N 26°10' W 079°33'1918.6
2014-Dec-19 06:33N 26°07' W 079°54'1211.9
2014-Dec-19 05:33N 26°05' W 080°07'1 1.1
2014-Dec-19 04:33N 26°04' W 080°07'0 0.0
2014-Dec-19 03:29N 26°04' W 080°07'0 0.0
2014-Dec-19 02:32N 26°04' W 080°07'0 0.0
2014-Dec-19 01:32N 26°04' W 080°07'0 0.0
2014-Dec-19 00:32N 26°04' W 080°07'0 0.0
2014-Dec-18 23:32N 26°04' W 080°07'0 0.0
2014-Dec-18 22:32N 26°04' W 080°07'0 0.0
2014-Dec-18 21:32N 26°04' W 080°07'0 0.0
2014-Dec-18 20:32N 26°04' W 080°07'0 0.0
2014-Dec-18 19:23N 26°04' W 080°07'0 0.0
2014-Dec-18 18:20N 26°04' W 080°07'0 0.0
2014-Dec-18 17:26N 26°04' W 080°07'0 0.0
2014-Dec-18 16:26N 26°04' W 080°07'0 0.0
2014-Dec-18 15:29N 26°04' W 080°07'0 0.0
2014-Dec-18 14:29N 26°04' W 080°07'1 1.2
2014-Dec-18 13:33N 26°05' W 080°07'7 6.8
2014-Dec-18 12:33N 26°10' W 080°01'1616.5
2014-Dec-18 11:33N 26°26' W 079°58'1717.2
2014-Dec-18 10:33N 26°43' W 079°57'1817.7
2014-Dec-18 09:33N 27°01' W 079°56'1917.6
2014-Dec-18 08:29N 27°20' W 079°57'  
2014-Dec-11 04:33N 39°35' W 073°53'1010.0
2014-Dec-11 03:33N 39°45' W 073°52'1010.0
2014-Dec-11 02:33N 39°55' W 073°51'24 9.9
2014-Dec-11 00:07N 40°19' W 073°49'6 9.6
2014-Dec-10 23:31N 40°25' W 073°49'8 8.6
2014-Dec-10 22:33N 40°30' W 073°57'1110.8
2014-Dec-10 21:33N 40°40' W 074°04'1 0.8
2014-Dec-10 20:33N 40°40' W 074°05'0 0.0
2014-Dec-10 19:33N 40°40' W 074°05'0 0.0
2014-Dec-10 18:33N 40°40' W 074°05'0 0.0
2014-Dec-10 17:33N 40°40' W 074°05'0 0.0
2014-Dec-10 16:33N 40°40' W 074°05'0 0.0
2014-Dec-10 15:33N 40°40' W 074°05'0 0.0
2014-Dec-10 14:33N 40°40' W 074°05'0 0.0
2014-Dec-10 13:33N 40°40' W 074°05'0 0.0
2014-Dec-10 12:33N 40°40' W 074°05'0 0.0
2014-Dec-10 11:33N 40°40' W 074°05'0 0.0
2014-Dec-10 10:33N 40°40' W 074°05'0 0.0
2014-Dec-10 09:33N 40°40' W 074°05'0 0.0
2014-Dec-10 08:33N 40°40' W 074°05'0 0.0
2014-Dec-10 07:33N 40°40' W 074°05'0 0.0
2014-Dec-10 06:33N 40°40' W 074°05'0 0.0
2014-Dec-10 05:33N 40°40' W 074°05'0 0.0
2014-Dec-10 04:33N 40°40' W 074°05'0 0.0
2014-Dec-10 03:33N 40°40' W 074°05'1 0.7
2014-Dec-10 02:33N 40°40' W 074°04'9 8.5
2014-Dec-10 01:33N 40°32' W 074°01'10 9.9
2014-Dec-10 00:33N 40°27' W 073°49'9611.8
2014-Dec-09 16:26N 39°19' W 072°22'  
Track history (hours):
 
Tides and Currents Weather Stations Pressure Air Temp Water Temp Dewpoint Dewpoint Depression Visibility Wind Speed Wind Dir Waves Ship Positions

Monte Tamaro

Last reported at 2014-Dec-19 08:25 UTC. Time now 2014-Dec-21 23:16 UTC.
Position N 26°13' W 079°16'.

Length 272.1 m; beam 40.1 m; draft 13.2 m.

Type: Ship (hazmat cat B). MMSI: 218132000.

Date/timePositionNaut miles runAvg speedWind from/ knotsBaromVisibWave heightAir tempDewpointWater temp
2014-Dec-19 08:25N 26°13' W 079°16'1618.4
2014-Dec-19 07:33N 26°10' W 079°33'1918.6
2014-Dec-19 06:33N 26°07' W 079°54'1211.9
2014-Dec-19 05:33N 26°05' W 080°07'1 1.1
2014-Dec-19 04:33N 26°04' W 080°07'0 0.0
2014-Dec-19 03:29N 26°04' W 080°07'0 0.0
2014-Dec-19 02:32N 26°04' W 080°07'0 0.0
2014-Dec-19 01:32N 26°04' W 080°07'0 0.0
2014-Dec-19 00:32N 26°04' W 080°07'0 0.0
2014-Dec-18 23:32N 26°04' W 080°07'0 0.0
2014-Dec-18 22:32N 26°04' W 080°07'0 0.0
2014-Dec-18 21:32N 26°04' W 080°07'0 0.0
2014-Dec-18 20:32N 26°04' W 080°07'0 0.0
2014-Dec-18 19:23N 26°04' W 080°07'0 0.0
2014-Dec-18 18:20N 26°04' W 080°07'0 0.0
2014-Dec-18 17:26N 26°04' W 080°07'0 0.0
2014-Dec-18 16:26N 26°04' W 080°07'0 0.0
2014-Dec-18 15:29N 26°04' W 080°07'0 0.0
2014-Dec-18 14:29N 26°04' W 080°07'1 1.2
2014-Dec-18 13:33N 26°05' W 080°07'7 6.8
2014-Dec-18 12:33N 26°10' W 080°01'1616.5
2014-Dec-18 11:33N 26°26' W 079°58'1717.2
2014-Dec-18 10:33N 26°43' W 079°57'1817.7
2014-Dec-18 09:33N 27°01' W 079°56'1917.6
2014-Dec-18 08:29N 27°20' W 079°57'  
2014-Dec-11 04:33N 39°35' W 073°53'1010.0
2014-Dec-11 03:33N 39°45' W 073°52'1010.0
2014-Dec-11 02:33N 39°55' W 073°51'24 9.9
2014-Dec-11 00:07N 40°19' W 073°49'6 9.6
2014-Dec-10 23:31N 40°25' W 073°49'8 8.6
2014-Dec-10 22:33N 40°30' W 073°57'1110.8
2014-Dec-10 21:33N 40°40' W 074°04'1 0.8
2014-Dec-10 20:33N 40°40' W 074°05'0 0.0
2014-Dec-10 19:33N 40°40' W 074°05'0 0.0
2014-Dec-10 18:33N 40°40' W 074°05'0 0.0
2014-Dec-10 17:33N 40°40' W 074°05'0 0.0
2014-Dec-10 16:33N 40°40' W 074°05'0 0.0
2014-Dec-10 15:33N 40°40' W 074°05'0 0.0
2014-Dec-10 14:33N 40°40' W 074°05'0 0.0
2014-Dec-10 13:33N 40°40' W 074°05'0 0.0
2014-Dec-10 12:33N 40°40' W 074°05'0 0.0
2014-Dec-10 11:33N 40°40' W 074°05'0 0.0
2014-Dec-10 10:33N 40°40' W 074°05'0 0.0
2014-Dec-10 09:33N 40°40' W 074°05'0 0.0
2014-Dec-10 08:33N 40°40' W 074°05'0 0.0
2014-Dec-10 07:33N 40°40' W 074°05'0 0.0
2014-Dec-10 06:33N 40°40' W 074°05'0 0.0
2014-Dec-10 05:33N 40°40' W 074°05'0 0.0
2014-Dec-10 04:33N 40°40' W 074°05'0 0.0
2014-Dec-10 03:33N 40°40' W 074°05'1 0.7
2014-Dec-10 02:33N 40°40' W 074°04'9 8.5
2014-Dec-10 01:33N 40°32' W 074°01'10 9.9
2014-Dec-10 00:33N 40°27' W 073°49'9611.8
2014-Dec-09 16:26N 39°19' W 072°22'  

Dump ship's entire track history